createdAt,value
2023-02-17T00:00:14.372Z,22.61
2023-02-17T00:02:40.725Z,22.61
2023-02-17T00:05:07.099Z,22.57
2023-02-17T00:07:33.438Z,22.58
2023-02-17T00:10:00.024Z,22.56
2023-02-17T00:12:26.356Z,22.56
2023-02-17T00:14:52.667Z,22.55
2023-02-17T00:17:19.034Z,22.55
2023-02-17T00:19:45.527Z,22.51
2023-02-17T00:22:11.855Z,22.49
2023-02-17T00:24:38.603Z,22.49
2023-02-17T00:27:05.029Z,22.48
2023-02-17T00:29:31.397Z,22.45
2023-02-17T00:31:57.771Z,22.42
2023-02-17T00:34:24.154Z,22.40
2023-02-17T00:36:50.474Z,22.37
2023-02-17T00:39:16.962Z,22.36
2023-02-17T00:41:43.288Z,22.38
2023-02-17T00:44:17.189Z,22.35
2023-02-17T00:46:43.754Z,22.34
2023-02-17T00:49:14.475Z,22.32
2023-02-17T00:51:40.796Z,22.31
2023-02-17T00:54:07.115Z,22.28
2023-02-17T00:56:33.428Z,22.29
2023-02-17T00:58:59.740Z,22.26
2023-02-17T01:01:26.063Z,22.28
2023-02-17T01:03:52.375Z,22.24
2023-02-17T01:06:21.775Z,22.24
2023-02-17T01:08:48.153Z,22.22
2023-02-17T01:11:18.052Z,22.22
2023-02-17T01:13:44.606Z,22.21
2023-02-17T01:16:37.406Z,22.18
2023-02-17T01:19:04.172Z,22.16
2023-02-17T01:21:30.484Z,22.15
2023-02-17T01:23:57.262Z,22.12
2023-02-17T01:26:24.239Z,22.10
2023-02-17T01:28:50.672Z,22.05
2023-02-17T01:31:17.074Z,22.05
2023-02-17T01:33:43.484Z,22.03
2023-02-17T01:36:10.348Z,22.02
2023-02-17T01:38:36.766Z,22.01
2023-02-17T01:41:03.142Z,21.99
2023-02-17T01:43:29.459Z,21.97
2023-02-17T01:45:56.294Z,21.96
2023-02-17T01:48:23.049Z,21.93
2023-02-17T01:50:52.408Z,21.91
2023-02-17T01:53:20.376Z,21.92
2023-02-17T01:55:46.668Z,21.90
2023-02-17T01:58:13.719Z,21.88
2023-02-17T02:00:40.032Z,21.88
2023-02-17T02:03:06.772Z,21.88
2023-02-17T02:05:33.092Z,21.88
2023-02-17T02:07:59.456Z,21.89
2023-02-17T02:10:25.774Z,21.87
2023-02-17T02:12:52.860Z,21.86
2023-02-17T02:15:22.749Z,21.84
2023-02-17T02:17:48.984Z,21.83
2023-02-17T02:20:15.251Z,21.81
2023-02-17T02:22:44.503Z,21.76
2023-02-17T02:25:18.147Z,21.75
2023-02-17T02:27:51.732Z,21.73
2023-02-17T02:30:21.113Z,21.73
2023-02-17T02:32:50.521Z,21.71
2023-02-17T02:35:16.751Z,21.69
2023-02-17T02:37:44.119Z,21.68
2023-02-17T02:40:10.449Z,21.66
2023-02-17T02:42:36.790Z,21.66
2023-02-17T02:45:05.482Z,21.62
2023-02-17T02:47:48.482Z,21.63
2023-02-17T02:50:16.275Z,21.61
2023-02-17T02:52:46.417Z,21.60
2023-02-17T02:55:15.583Z,21.59
2023-02-17T02:57:48.050Z,21.61
2023-02-17T03:00:17.229Z,21.59
2023-02-17T03:02:52.305Z,21.61
2023-02-17T03:05:39.139Z,21.60
2023-02-17T03:08:10.340Z,21.63
2023-02-17T03:10:36.676Z,21.66
2023-02-17T03:13:03.050Z,21.65
2023-02-17T03:15:30.456Z,21.65
2023-02-17T03:17:57.813Z,21.65
2023-02-17T03:20:24.137Z,21.63
2023-02-17T03:22:50.673Z,21.62
2023-02-17T03:25:16.994Z,21.62
2023-02-17T03:27:43.381Z,21.61
2023-02-17T03:30:09.997Z,21.60
2023-02-17T03:32:36.341Z,21.57
2023-02-17T03:35:02.688Z,21.55
2023-02-17T03:37:28.987Z,21.56
2023-02-17T03:39:55.534Z,21.54
2023-02-17T03:42:21.915Z,21.53
2023-02-17T03:44:48.246Z,21.55
2023-02-17T03:47:14.661Z,21.60
2023-02-17T03:49:41.211Z,21.64
2023-02-17T03:52:07.534Z,21.63
2023-02-17T03:54:33.848Z,21.64
2023-02-17T03:57:01.143Z,21.63
2023-02-17T03:59:27.680Z,21.62
2023-02-17T04:01:53.992Z,21.62
2023-02-17T04:04:20.348Z,21.61
2023-02-17T04:06:46.686Z,21.59
2023-02-17T04:09:13.063Z,21.59
2023-02-17T04:11:39.630Z,21.57
2023-02-17T04:14:05.968Z,21.59
2023-02-17T04:16:32.284Z,21.55
2023-02-17T04:18:58.617Z,21.55
2023-02-17T04:21:24.928Z,21.54
2023-02-17T04:23:51.265Z,21.55
2023-02-17T04:26:17.937Z,21.54
2023-02-17T04:28:44.546Z,21.53
2023-02-17T04:31:11.245Z,21.52
2023-02-17T04:33:37.997Z,21.49
2023-02-17T04:36:04.906Z,21.47
2023-02-17T04:38:31.617Z,21.46
2023-02-17T04:40:58.048Z,21.46
2023-02-17T04:43:25.059Z,21.44
2023-02-17T04:45:51.414Z,21.43
2023-02-17T04:48:17.865Z,21.40
2023-02-17T04:50:44.203Z,21.41
2023-02-17T04:53:10.521Z,21.40
2023-02-17T04:55:37.123Z,21.38
2023-02-17T04:58:03.437Z,21.36
2023-02-17T05:00:30.497Z,21.38
2023-02-17T05:02:56.805Z,21.41
2023-02-17T05:05:23.144Z,21.42
2023-02-17T05:07:49.769Z,21.41
2023-02-17T05:10:16.440Z,21.42
2023-02-17T05:12:42.746Z,21.41
2023-02-17T05:15:09.201Z,21.42
2023-02-17T05:17:35.512Z,21.42
2023-02-17T05:20:01.927Z,21.42
2023-02-17T05:22:28.240Z,21.40
2023-02-17T05:24:54.592Z,21.41
2023-02-17T05:27:20.905Z,21.39
2023-02-17T05:29:47.293Z,21.39
2023-02-17T05:32:13.617Z,21.37
2023-02-17T05:34:39.936Z,21.37
2023-02-17T05:37:06.257Z,21.36
2023-02-17T05:39:32.578Z,21.35
2023-02-17T05:41:58.922Z,21.35
2023-02-17T05:44:25.979Z,21.34
2023-02-17T05:46:52.304Z,21.33
2023-02-17T05:49:18.631Z,21.30
2023-02-17T05:51:45.181Z,21.30
2023-02-17T05:54:11.524Z,21.31
2023-02-17T05:56:37.846Z,21.29
2023-02-17T05:59:04.161Z,21.29
2023-02-17T06:01:30.511Z,21.27
2023-02-17T06:03:56.924Z,21.28
2023-02-17T06:06:23.240Z,21.25
2023-02-17T06:08:49.551Z,21.25
2023-02-17T06:11:15.863Z,21.27
2023-02-17T06:13:42.187Z,21.30
2023-02-17T06:16:08.767Z,21.29
2023-02-17T06:18:35.294Z,21.30
2023-02-17T06:21:01.601Z,21.34
2023-02-17T06:23:27.986Z,21.33
2023-02-17T06:25:54.294Z,21.33
2023-02-17T06:28:20.611Z,21.31
2023-02-17T06:30:46.932Z,21.30
2023-02-17T06:33:13.235Z,21.29
2023-02-17T06:35:39.562Z,21.29
2023-02-17T06:38:06.265Z,21.24
2023-02-17T06:40:32.845Z,21.28
2023-02-17T06:42:59.164Z,21.27
2023-02-17T06:45:25.520Z,21.26
2023-02-17T06:47:51.843Z,21.26
2023-02-17T06:50:18.211Z,21.27
2023-02-17T06:52:44.525Z,21.26
2023-02-17T06:55:10.872Z,21.26
2023-02-17T06:57:37.418Z,21.26
2023-02-17T07:00:04.481Z,21.27
2023-02-17T07:02:31.140Z,21.29
2023-02-17T07:04:57.495Z,21.28
2023-02-17T07:07:23.801Z,21.26
2023-02-17T07:09:50.227Z,21.27
2023-02-17T07:12:16.535Z,21.28
2023-02-17T07:14:43.014Z,21.27
2023-02-17T07:17:09.384Z,21.25
2023-02-17T07:19:35.785Z,21.24
2023-02-17T07:22:02.699Z,21.22
2023-02-17T07:24:29.025Z,21.23
2023-02-17T07:26:56.113Z,21.24
2023-02-17T07:29:22.657Z,21.23
2023-02-17T07:31:49.012Z,21.27
2023-02-17T07:34:15.351Z,21.36
2023-02-17T07:36:41.745Z,21.51
2023-02-17T07:39:08.055Z,21.68
2023-02-17T07:41:34.692Z,21.81
2023-02-17T07:44:01.012Z,21.85
2023-02-17T07:46:27.380Z,21.81
2023-02-17T07:48:53.731Z,21.84
2023-02-17T07:51:21.242Z,21.80
2023-02-17T07:53:47.894Z,21.81
2023-02-17T07:56:14.739Z,21.80
2023-02-17T07:58:41.349Z,21.82
2023-02-17T08:01:08.135Z,21.80
2023-02-17T08:03:34.469Z,21.80
2023-02-17T08:06:00.960Z,21.62
2023-02-17T08:08:45.834Z,21.66
2023-02-17T08:11:31.124Z,21.68
2023-02-17T08:13:57.444Z,21.61
2023-02-17T08:16:23.898Z,21.62
2023-02-17T08:18:50.241Z,21.62
2023-02-17T08:21:16.573Z,21.62
2023-02-17T08:23:45.173Z,21.59
2023-02-17T08:26:11.756Z,21.59
2023-02-17T08:28:38.077Z,21.54
2023-02-17T08:31:04.646Z,21.55
2023-02-17T08:33:31.040Z,21.55
2023-02-17T08:35:57.629Z,21.64
2023-02-17T08:38:24.031Z,21.72
2023-02-17T08:40:50.394Z,21.76
2023-02-17T08:43:16.700Z,21.76
2023-02-17T08:45:43.046Z,21.75
2023-02-17T08:48:09.407Z,21.77
2023-02-17T08:50:36.035Z,21.77
2023-02-17T08:53:02.358Z,21.72
2023-02-17T08:55:33.486Z,21.71
2023-02-17T08:58:07.139Z,21.71
2023-02-17T09:00:33.537Z,21.73
2023-02-17T09:02:59.906Z,21.72
2023-02-17T09:05:26.822Z,21.71
2023-02-17T09:07:53.156Z,21.69
2023-02-17T09:10:19.481Z,21.69
2023-02-17T09:12:46.067Z,21.70
2023-02-17T09:15:12.429Z,21.71
2023-02-17T09:17:39.821Z,21.71
2023-02-17T09:20:16.234Z,21.72
2023-02-17T09:22:51.429Z,21.72
2023-02-17T09:25:17.826Z,21.69
2023-02-17T09:27:44.199Z,21.68
2023-02-17T09:30:10.768Z,21.67
2023-02-17T09:32:37.145Z,21.67
2023-02-17T09:35:05.994Z,21.66
2023-02-17T09:37:32.347Z,21.64
2023-02-17T09:39:58.652Z,21.63
2023-02-17T09:42:25.476Z,21.67
2023-02-17T09:44:56.119Z,21.72
2023-02-17T09:47:23.463Z,21.74
2023-02-17T09:50:03.489Z,21.80
2023-02-17T09:52:48.942Z,21.88
2023-02-17T09:55:16.245Z,21.90
2023-02-17T09:57:54.283Z,21.91
2023-02-17T10:00:25.228Z,21.93
2023-02-17T10:02:56.054Z,21.91
2023-02-17T10:05:22.744Z,21.91
2023-02-17T10:07:50.856Z,21.90
2023-02-17T10:10:21.098Z,21.90
2023-02-17T10:12:49.482Z,21.86
2023-02-17T10:15:21.262Z,21.86
2023-02-17T10:17:52.772Z,21.84
2023-02-17T10:20:34.483Z,21.83
2023-02-17T10:23:10.593Z,21.80
2023-02-17T10:25:50.818Z,21.79
2023-02-17T10:28:37.385Z,21.79
2023-02-17T10:31:04.845Z,21.84
2023-02-17T10:33:38.176Z,21.87
2023-02-17T10:36:10.472Z,21.83
2023-02-17T10:39:12.360Z,21.81
2023-02-17T10:41:38.684Z,21.86
2023-02-17T10:44:18.227Z,21.92
2023-02-17T10:46:44.653Z,21.92
2023-02-17T10:49:14.747Z,21.94
2023-02-17T10:51:41.071Z,22.09
2023-02-17T10:54:07.811Z,22.18
2023-02-17T10:56:35.616Z,22.26
2023-02-17T10:59:06.318Z,22.34
2023-02-17T11:01:32.651Z,22.36
2023-02-17T11:04:02.976Z,22.38
2023-02-17T11:06:29.324Z,22.37
2023-02-17T11:08:59.901Z,22.36
2023-02-17T11:11:26.903Z,22.34
2023-02-17T11:14:04.446Z,22.34
2023-02-17T11:16:41.396Z,22.36
2023-02-17T11:19:08.109Z,22.39
2023-02-17T11:21:34.712Z,22.39
2023-02-17T11:24:02.191Z,22.37
2023-02-17T11:26:29.617Z,22.38
2023-02-17T11:29:06.269Z,22.37
2023-02-17T11:31:32.704Z,22.42
2023-02-17T11:33:59.045Z,22.41
2023-02-17T11:36:29.189Z,22.43
2023-02-17T11:38:55.652Z,22.43
2023-02-17T11:41:22.065Z,22.44
2023-02-17T11:43:55.319Z,22.44
2023-02-17T11:46:22.118Z,22.41
2023-02-17T11:48:56.067Z,22.38
2023-02-17T11:51:28.389Z,22.28
2023-02-17T11:54:01.130Z,22.22
2023-02-17T11:56:33.076Z,22.18
2023-02-17T11:59:07.018Z,22.24
2023-02-17T12:01:45.269Z,22.32
2023-02-17T12:04:12.004Z,22.38
2023-02-17T12:06:41.501Z,22.44
2023-02-17T12:09:10.914Z,22.53
2023-02-17T12:11:40.998Z,22.54
2023-02-17T12:14:19.728Z,22.58
2023-02-17T12:16:57.612Z,22.63
2023-02-17T12:19:30.923Z,22.59
2023-02-17T12:22:15.796Z,22.60
2023-02-17T12:25:05.449Z,22.58
2023-02-17T12:27:50.523Z,22.58
2023-02-17T12:30:29.281Z,22.56
2023-02-17T12:32:58.988Z,22.59
2023-02-17T12:35:25.982Z,22.58
2023-02-17T12:37:56.792Z,22.59
2023-02-17T12:40:34.048Z,22.56
2023-02-17T12:43:01.331Z,22.56
2023-02-17T12:45:33.300Z,22.57
2023-02-17T12:48:01.400Z,22.57
2023-02-17T12:50:32.863Z,22.58
2023-02-17T12:53:00.467Z,22.56
2023-02-17T12:55:52.823Z,22.53
2023-02-17T12:58:22.687Z,22.48
2023-02-17T13:01:09.535Z,22.55
2023-02-17T13:03:35.992Z,22.53
2023-02-17T13:06:03.138Z,22.51
2023-02-17T13:08:31.902Z,22.54
2023-02-17T13:11:01.984Z,22.60
2023-02-17T13:13:29.132Z,22.66
2023-02-17T13:16:11.844Z,22.66
2023-02-17T13:18:39.066Z,22.71
2023-02-17T13:21:20.530Z,22.71
2023-02-17T13:23:58.022Z,22.73
2023-02-17T13:26:25.573Z,22.69
2023-02-17T13:28:53.274Z,22.75
2023-02-17T13:31:23.842Z,22.69
2023-02-17T13:33:51.258Z,22.75
2023-02-17T13:36:22.324Z,22.75
2023-02-17T13:38:52.434Z,22.73
2023-02-17T13:41:18.764Z,22.69
2023-02-17T13:43:45.101Z,22.74
2023-02-17T13:46:13.211Z,22.74
2023-02-17T13:48:39.535Z,22.73
2023-02-17T13:51:06.090Z,22.69
2023-02-17T13:53:33.161Z,22.68
2023-02-17T13:56:00.329Z,22.65
2023-02-17T13:58:28.235Z,22.71
2023-02-17T14:00:54.943Z,22.78
2023-02-17T14:03:22.498Z,22.77
2023-02-17T14:05:49.243Z,22.76
2023-02-17T14:08:34.375Z,22.77
2023-02-17T14:11:10.997Z,22.81
2023-02-17T14:13:37.744Z,22.77
2023-02-17T14:16:06.718Z,22.76
2023-02-17T14:18:37.849Z,22.77
2023-02-17T14:21:11.042Z,22.76
2023-02-17T14:23:41.340Z,22.71
2023-02-17T14:26:11.474Z,22.75
2023-02-17T14:28:37.821Z,22.71
2023-02-17T14:31:10.651Z,22.68
2023-02-17T14:33:37.125Z,22.68
2023-02-17T14:36:06.318Z,22.71
2023-02-17T14:38:35.066Z,22.73
2023-02-17T14:41:01.432Z,22.71
2023-02-17T14:43:27.788Z,22.71
2023-02-17T14:45:54.160Z,22.69
2023-02-17T14:48:20.527Z,22.67
2023-02-17T14:50:47.011Z,22.66
2023-02-17T14:53:14.159Z,22.67
2023-02-17T14:55:48.164Z,22.69
2023-02-17T14:58:17.723Z,22.71
2023-02-17T15:00:44.033Z,22.71
2023-02-17T15:03:10.510Z,22.73
2023-02-17T15:05:36.910Z,22.74
2023-02-17T15:08:03.515Z,22.74
2023-02-17T15:10:32.765Z,22.71
2023-02-17T15:12:59.101Z,22.70
2023-02-17T15:15:25.698Z,22.69
2023-02-17T15:17:52.036Z,22.71
2023-02-17T15:20:18.418Z,22.83
2023-02-17T15:22:44.785Z,22.85
2023-02-17T15:25:14.830Z,22.86
2023-02-17T15:27:41.454Z,22.89
2023-02-17T15:30:11.428Z,22.90
2023-02-17T15:32:38.375Z,22.92
2023-02-17T15:35:10.334Z,22.92
2023-02-17T15:37:36.983Z,22.98
2023-02-17T15:40:03.308Z,22.91
2023-02-17T15:42:30.002Z,22.88
2023-02-17T15:44:56.322Z,22.83
2023-02-17T15:47:22.660Z,22.80
2023-02-17T15:49:48.979Z,22.78
2023-02-17T15:52:15.531Z,22.77
2023-02-17T15:54:42.913Z,22.77
2023-02-17T15:57:14.020Z,22.76
2023-02-17T15:59:40.368Z,22.75
2023-02-17T16:02:15.783Z,22.70
2023-02-17T16:04:43.263Z,22.70
2023-02-17T16:07:09.843Z,22.66
2023-02-17T16:09:36.150Z,22.67
2023-02-17T16:12:02.786Z,22.66
2023-02-17T16:14:35.848Z,22.66
2023-02-17T16:17:02.543Z,22.64
2023-02-17T16:19:28.982Z,22.64
2023-02-17T16:21:55.314Z,22.62
2023-02-17T16:24:22.010Z,22.61
2023-02-17T16:26:48.328Z,22.65
2023-02-17T16:29:15.342Z,22.75
2023-02-17T16:31:41.778Z,22.84
2023-02-17T16:34:08.153Z,22.90
2023-02-17T16:36:34.743Z,22.94
2023-02-17T16:39:02.802Z,22.93
2023-02-17T16:41:29.116Z,22.92
2023-02-17T16:43:55.438Z,22.92
2023-02-17T16:46:27.508Z,22.93
2023-02-17T16:48:54.220Z,22.94
2023-02-17T16:51:21.340Z,22.97
2023-02-17T16:53:47.701Z,22.99
2023-02-17T16:56:15.150Z,23.00
2023-02-17T16:58:41.470Z,23.00
2023-02-17T17:01:12.511Z,23.12
2023-02-17T17:03:40.084Z,23.16
2023-02-17T17:06:14.953Z,23.18
2023-02-17T17:08:41.268Z,23.23
2023-02-17T17:11:08.740Z,23.28
2023-02-17T17:13:35.057Z,23.29
2023-02-17T17:16:01.366Z,23.27
2023-02-17T17:18:27.683Z,23.30
2023-02-17T17:20:54.004Z,23.36
2023-02-17T17:23:20.375Z,23.39
2023-02-17T17:25:46.875Z,23.39
2023-02-17T17:28:14.272Z,23.39
2023-02-17T17:30:40.589Z,23.39
2023-02-17T17:33:07.089Z,23.35
2023-02-17T17:35:33.401Z,23.35
2023-02-17T17:37:59.713Z,23.27
2023-02-17T17:40:27.262Z,23.29
2023-02-17T17:42:53.562Z,23.47
2023-02-17T17:45:19.876Z,23.62
2023-02-17T17:47:46.192Z,23.73
2023-02-17T17:50:13.535Z,23.76
2023-02-17T17:52:39.934Z,23.77
2023-02-17T17:55:06.409Z,23.69
2023-02-17T17:57:34.816Z,23.69
2023-02-17T18:00:01.145Z,23.64
2023-02-17T18:02:27.490Z,23.62
2023-02-17T18:04:53.948Z,23.58
2023-02-17T18:07:20.280Z,23.56
2023-02-17T18:09:46.587Z,23.55
2023-02-17T18:12:14.107Z,23.58
2023-02-17T18:14:40.534Z,23.55
2023-02-17T18:17:06.988Z,23.55
2023-02-17T18:19:33.307Z,23.52
2023-02-17T18:21:59.728Z,23.52
2023-02-17T18:24:26.059Z,23.50
2023-02-17T18:26:52.488Z,23.49
2023-02-17T18:29:19.085Z,23.48
2023-02-17T18:31:45.497Z,23.47
2023-02-17T18:34:11.954Z,23.41
2023-02-17T18:36:38.391Z,23.37
2023-02-17T18:39:05.119Z,23.32
2023-02-17T18:41:32.760Z,23.32
2023-02-17T18:43:59.720Z,23.29
2023-02-17T18:46:27.177Z,23.26
2023-02-17T18:48:53.897Z,23.27
2023-02-17T18:51:23.102Z,23.31
2023-02-17T18:53:52.288Z,23.43
2023-02-17T18:56:20.991Z,23.57
2023-02-17T18:58:47.542Z,23.66
2023-02-17T19:01:14.784Z,23.70
2023-02-17T19:03:41.107Z,23.66
2023-02-17T19:06:11.328Z,23.63
2023-02-17T19:08:37.904Z,23.65
2023-02-17T19:11:04.212Z,23.63
2023-02-17T19:13:30.526Z,23.67
2023-02-17T19:16:03.992Z,23.59
2023-02-17T19:18:30.328Z,23.56
2023-02-17T19:20:56.839Z,23.61
2023-02-17T19:23:23.138Z,23.56
2023-02-17T19:25:49.463Z,23.57
2023-02-17T19:28:15.784Z,23.53
2023-02-17T19:30:42.206Z,23.48
2023-02-17T19:33:08.515Z,23.49
2023-02-17T19:35:34.826Z,23.49
2023-02-17T19:38:01.139Z,23.51
2023-02-17T19:40:27.461Z,23.49
2023-02-17T19:42:53.779Z,23.50
2023-02-17T19:45:20.090Z,23.43
2023-02-17T19:47:46.455Z,23.42
2023-02-17T19:50:12.770Z,23.40
2023-02-17T19:52:39.272Z,23.40
2023-02-17T19:55:05.980Z,23.36
2023-02-17T19:57:32.292Z,23.42
2023-02-17T19:59:58.609Z,23.54
2023-02-17T20:02:25.009Z,23.71
2023-02-17T20:04:51.347Z,23.77
2023-02-17T20:07:17.656Z,23.78
2023-02-17T20:09:43.981Z,23.82
2023-02-17T20:12:10.356Z,23.77
2023-02-17T20:14:36.900Z,23.74
2023-02-17T20:17:03.256Z,23.69
2023-02-17T20:19:29.564Z,23.65
2023-02-17T20:21:55.917Z,23.62
2023-02-17T20:24:22.757Z,23.59
2023-02-17T20:26:50.818Z,23.56
2023-02-17T20:29:17.127Z,23.53
2023-02-17T20:31:43.592Z,23.52
2023-02-17T20:34:21.536Z,23.58
2023-02-17T20:36:47.867Z,23.66
2023-02-17T20:39:14.607Z,23.70
2023-02-17T20:41:40.926Z,23.71
2023-02-17T20:44:07.254Z,23.73
2023-02-17T20:46:33.697Z,23.64
2023-02-17T20:49:00.045Z,23.64
2023-02-17T20:51:26.356Z,23.56
2023-02-17T20:53:52.673Z,23.56
2023-02-17T20:56:19.869Z,23.63
2023-02-17T20:58:46.188Z,23.57
2023-02-17T21:01:12.559Z,23.71
2023-02-17T21:03:38.886Z,23.75
2023-02-17T21:06:06.622Z,23.73
2023-02-17T21:08:33.137Z,23.72
2023-02-17T21:10:59.477Z,23.66
2023-02-17T21:13:25.799Z,23.67
2023-02-17T21:15:52.164Z,23.70
2023-02-17T21:18:18.478Z,23.89
2023-02-17T21:20:44.877Z,24.17
2023-02-17T21:23:11.179Z,24.26
2023-02-17T21:25:37.507Z,24.23
2023-02-17T21:28:03.820Z,24.33
2023-02-17T21:30:30.184Z,24.42
2023-02-17T21:32:56.622Z,24.49
2023-02-17T21:35:23.259Z,24.58
2023-02-17T21:37:49.566Z,24.65
2023-02-17T21:40:15.901Z,24.76
2023-02-17T21:43:01.028Z,24.81
2023-02-17T21:45:27.403Z,24.86
2023-02-17T21:47:53.717Z,24.89
2023-02-17T21:50:21.269Z,24.91
2023-02-17T21:52:47.590Z,25.01
2023-02-17T21:55:13.924Z,24.96
2023-02-17T21:57:40.365Z,24.98
2023-02-17T22:00:08.648Z,24.91
2023-02-17T22:02:34.964Z,24.86
2023-02-17T22:05:01.283Z,24.87
2023-02-17T22:07:27.607Z,24.87
2023-02-17T22:09:53.932Z,24.88
2023-02-17T22:12:20.263Z,24.84
2023-02-17T22:14:46.603Z,24.86
2023-02-17T22:17:12.937Z,24.91
2023-02-17T22:19:39.259Z,24.80
2023-02-17T22:22:05.566Z,24.71
2023-02-17T22:24:31.899Z,24.56
2023-02-17T22:26:58.222Z,24.57
2023-02-17T22:29:24.552Z,24.62
2023-02-17T22:31:55.625Z,24.64
2023-02-17T22:34:22.224Z,24.64
2023-02-17T22:36:48.538Z,24.62
2023-02-17T22:39:14.862Z,24.61
2023-02-17T22:41:41.187Z,24.61
2023-02-17T22:44:07.823Z,24.60
2023-02-17T22:46:34.327Z,24.59
2023-02-17T22:49:00.684Z,24.55
2023-02-17T22:51:28.212Z,24.50
2023-02-17T22:53:54.570Z,24.82
2023-02-17T22:56:21.145Z,25.00
2023-02-17T22:58:47.600Z,25.09
2023-02-17T23:01:17.523Z,25.15
2023-02-17T23:03:44.477Z,25.15
2023-02-17T23:06:14.366Z,25.16
2023-02-17T23:08:40.706Z,25.15
2023-02-17T23:11:07.639Z,25.15
2023-02-17T23:13:33.950Z,25.16
2023-02-17T23:16:00.486Z,25.18
2023-02-17T23:18:28.321Z,25.19
2023-02-17T23:20:54.966Z,25.21
2023-02-17T23:23:21.298Z,25.22
2023-02-17T23:25:48.903Z,25.16
2023-02-17T23:28:15.447Z,25.20
2023-02-17T23:30:42.360Z,25.19
2023-02-17T23:33:08.976Z,25.18
2023-02-17T23:35:38.701Z,25.08
2023-02-17T23:38:05.037Z,24.72
2023-02-17T23:40:31.373Z,24.60
2023-02-17T23:42:57.701Z,24.51
2023-02-17T23:45:24.050Z,24.42
2023-02-17T23:47:50.404Z,24.41
2023-02-17T23:50:17.259Z,24.38
2023-02-17T23:52:44.110Z,24.33
2023-02-17T23:55:10.426Z,24.32
2023-02-17T23:57:39.178Z,24.30
